Time;durP1;ratioP1;P1;durP2;ratioP2;P2;SDS_P1;SDS_P2;PMS_P1;PMS_P2;Temp;Humidity;BMP_temperature;BMP_pressure;BME280_temperature;BME280_humidity;BME280_pressure;Samples;Min_cycle;Max_cycle;Signal;HPM_P1;HPM_P2
2023/07/13 00:00:38;;;;;;;3.88;2.33;;;;;;;26.57;52.66;99740.47;5053750;28;20037;-85
2023/07/13 00:03:04;;;;;;;4.55;2.88;;;;;;;26.51;51.39;99742.78;5052432;28;20029;-84
2023/07/13 00:05:30;;;;;;;5.82;3.33;;;;;;;26.35;52.93;99737.75;5053706;28;20033;-85
2023/07/13 00:07:56;;;;;;;5.05;2.40;;;;;;;26.46;52.15;99743.16;5052268;28;20483;-85
2023/07/13 00:10:22;;;;;;;7.13;3.80;;;;;;;26.27;52.75;99725.75;5051880;28;20079;-85
2023/07/13 00:12:48;;;;;;;4.50;2.63;;;;;;;26.41;52.05;99746.22;5064243;28;20053;-84
2023/07/13 00:15:25;;;;;;;6.30;2.75;;;;;;;26.40;52.05;99747.25;5036464;28;20064;-82
2023/07/13 00:17:52;;;;;;;4.97;2.63;;;;;;;26.44;52.15;99739.72;5052583;28;20044;-86
2023/07/13 00:20:17;;;;;;;4.20;2.42;;;;;;;26.37;51.64;99754.72;5052885;28;20036;-84
2023/07/13 00:22:43;;;;;;;5.13;2.50;;;;;;;26.02;51.92;99729.50;5052717;28;20032;-84
2023/07/13 00:25:11;;;;;;;4.05;2.58;;;;;;;25.99;52.26;99718.94;5052311;28;20499;-84
2023/07/13 00:27:36;;;;;;;5.45;2.47;;;;;;;26.19;53.00;99749.81;5052056;28;20036;-84
2023/07/13 00:30:02;;;;;;;4.20;3.28;;;;;;;25.78;55.28;99729.59;5052726;28;20029;-84
2023/07/13 00:32:28;;;;;;;4.38;2.65;;;;;;;25.76;56.42;99745.03;5052770;28;20108;-84
2023/07/13 00:34:54;;;;;;;6.00;3.63;;;;;;;25.48;57.20;99720.16;5051603;28;20037;-83
2023/07/13 00:37:19;;;;;;;4.88;2.40;;;;;;;25.60;57.56;99737.25;5051604;28;20203;-83
2023/07/13 00:39:45;;;;;;;5.07;2.95;;;;;;;25.38;57.70;99697.56;5051935;28;20028;-83
2023/07/13 00:42:11;;;;;;;4.22;2.70;;;;;;;25.52;57.99;99713.56;5052154;28;20025;-83
2023/07/13 00:44:36;;;;;;;10.75;3.00;;;;;;;25.52;58.28;99728.91;5050898;28;20116;-84
2023/07/13 00:47:02;;;;;;;9.88;3.58;;;;;;;25.59;58.46;99740.94;5052093;28;20163;-85
2023/07/13 00:49:30;;;;;;;3.55;2.30;;;;;;;25.58;58.19;99724.84;5052299;28;20506;-84
2023/07/13 00:52:01;;;;;;;5.25;2.80;;;;;;;25.44;58.06;99724.09;5052504;28;20064;-84
2023/07/13 00:54:33;;;;;;;4.90;3.03;;;;;;;25.39;57.46;99723.56;5051649;28;20033;-85
2023/07/13 00:57:05;;;;;;;3.90;2.40;;;;;;;25.51;56.85;99719.06;5051986;28;20040;-83
2023/07/13 00:59:31;;;;;;;7.07;2.55;;;;;;;25.32;56.68;99700.75;5051730;28;20029;-84
2023/07/13 01:01:57;;;;;;;9.05;4.05;;;;;;;25.31;56.74;99693.59;5052070;28;20025;-84
2023/07/13 01:04:26;;;;;;;6.75;3.03;;;;;;;25.31;57.95;99734.94;5051626;28;20418;-84
2023/07/13 01:06:52;;;;;;;7.25;3.63;;;;;;;25.06;58.95;99724.28;5051672;28;20538;-84
2023/07/13 01:09:17;;;;;;;9.25;3.33;;;;;;;25.18;58.38;99704.44;5051720;28;20037;-85
2023/07/13 01:11:44;;;;;;;2.85;1.85;;;;;;;24.74;59.88;99679.81;5052006;28;20490;-84
2023/07/13 01:14:10;;;;;;;5.45;3.85;;;;;;;25.07;60.01;99693.59;5052302;28;20079;-85
2023/07/13 01:16:38;;;;;;;6.93;3.08;;;;;;;25.02;60.25;99688.53;5050935;28;20056;-84
2023/07/13 01:19:21;;;;;;;6.75;3.63;;;;;;;25.33;59.95;99707.84;5051546;28;20036;-84
2023/07/13 01:21:51;;;;;;;4.65;3.47;;;;;;;25.30;60.25;99699.97;5052195;28;20024;-83
2023/07/13 01:24:16;;;;;;;8.07;2.67;;;;;;;25.10;60.75;99682.56;5052231;28;20037;-84
2023/07/13 01:26:42;;;;;;;7.82;3.42;;;;;;;25.12;60.40;99673.38;5051527;28;20048;-84
2023/07/13 01:29:07;;;;;;;5.13;3.65;;;;;;;25.31;60.67;99701.69;5049931;28;20025;-84
2023/07/13 01:31:33;;;;;;;6.97;4.07;;;;;;;25.43;60.33;99708.88;5050706;28;20025;-83
2023/07/13 01:33:58;;;;;;;5.70;2.63;;;;;;;25.27;61.00;99698.34;5051023;28;20060;-84
2023/07/13 01:36:24;;;;;;;4.03;2.88;;;;;;;25.26;61.22;99709.28;5051095;28;20037;-84
2023/07/13 01:38:49;;;;;;;10.48;3.15;;;;;;;25.35;61.13;99706.75;5051611;28;20029;-85
2023/07/13 01:41:15;;;;;;;24.00;4.03;;;;;;;25.31;60.80;99715.19;5050863;28;20051;-86
2023/07/13 01:43:40;;;;;;;7.95;3.72;;;;;;;25.41;60.85;99715.34;5051339;28;20479;-85
2023/07/13 01:46:06;;;;;;;5.57;2.83;;;;;;;25.52;60.89;99718.09;5051162;28;20029;-85
2023/07/13 01:48:31;;;;;;;12.00;3.47;;;;;;;25.20;61.53;99691.69;5050685;28;20029;-84
2023/07/13 01:50:57;;;;;;;5.55;3.60;;;;;;;25.21;61.16;99698.81;5051000;28;20032;-84
2023/07/13 01:53:22;;;;;;;5.78;3.17;;;;;;;25.03;61.52;99701.06;5050810;28;20453;-84
2023/07/13 01:55:48;;;;;;;7.22;2.78;;;;;;;25.04;61.78;99729.78;5051026;28;20032;-85
2023/07/13 01:58:13;;;;;;;7.35;4.55;;;;;;;24.82;61.57;99687.34;5050076;28;20059;-84
2023/07/13 02:00:38;;;;;;;5.72;3.60;;;;;;;24.77;62.57;99721.88;5050621;28;20040;-84
2023/07/13 02:03:04;;;;;;;4.55;2.85;;;;;;;24.88;62.58;99735.44;5050894;28;20834;-84
2023/07/13 02:05:29;;;;;;;4.72;3.35;;;;;;;24.73;62.52;99696.09;5066257;28;20068;-84
2023/07/13 02:07:55;;;;;;;7.50;4.70;;;;;;;24.80;62.42;99694.69;5051085;28;20117;-83
2023/07/13 02:10:20;;;;;;;5.78;3.38;;;;;;;24.98;62.37;99722.16;5051513;28;20040;-83
2023/07/13 02:12:48;;;;;;;6.15;3.15;;;;;;;25.04;62.86;99737.88;5051062;28;20475;-83
2023/07/13 02:15:13;;;;;;;4.97;3.15;;;;;;;24.99;63.06;99731.94;5050623;28;20033;-84
2023/07/13 02:17:39;;;;;;;8.90;3.65;;;;;;;24.81;63.59;99718.00;5050666;28;20110;-84
2023/07/13 02:20:05;;;;;;;7.65;4.00;;;;;;;24.88;62.87;99721.94;5050438;28;20479;-82
2023/07/13 02:22:31;;;;;;;4.30;3.15;;;;;;;24.79;63.53;99723.50;5050164;28;20037;-83
2023/07/13 02:24:56;;;;;;;6.95;3.30;;;;;;;24.73;63.64;99728.47;5050724;28;20417;-84
2023/07/13 02:27:22;;;;;;;4.25;3.55;;;;;;;24.51;64.41;99721.06;5050591;28;20025;-84
2023/07/13 02:29:47;;;;;;;7.22;3.45;;;;;;;24.70;64.81;99752.97;5050426;28;20124;-82
2023/07/13 02:32:13;;;;;;;9.65;4.07;;;;;;;24.69;64.77;99759.34;5049907;28;20412;-84
2023/07/13 02:34:38;;;;;;;3.38;2.10;;;;;;;24.28;65.08;99732.56;5064872;28;20064;-84
2023/07/13 02:37:04;;;;;;;6.13;3.78;;;;;;;24.47;64.90;99750.09;5050651;28;20033;-84
2023/07/13 02:39:32;;;;;;;8.18;3.55;;;;;;;24.58;65.15;99762.84;5050457;28;20530;-84
2023/07/13 02:41:59;;;;;;;5.57;3.50;;;;;;;24.48;65.11;99754.50;5050103;28;20029;-84
2023/07/13 02:44:24;;;;;;;6.43;3.60;;;;;;;24.65;64.83;99764.97;5065316;28;20060;-84
2023/07/13 02:46:49;;;;;;;6.18;3.80;;;;;;;24.29;65.23;99736.09;5049843;28;20067;-84
2023/07/13 02:49:15;;;;;;;5.70;3.22;;;;;;;24.46;65.24;99753.75;5046312;28;20402;-84
2023/07/13 02:51:40;;;;;;;7.53;3.67;;;;;;;24.37;65.94;99759.81;5050432;28;20964;-84
2023/07/13 02:54:08;;;;;;;6.25;4.63;;;;;;;24.26;66.91;99757.88;5049959;28;20033;-83
2023/07/13 02:56:34;;;;;;;6.18;3.60;;;;;;;24.24;67.10;99760.69;5049953;28;20029;-84
2023/07/13 02:58:59;;;;;;;4.82;2.58;;;;;;;24.25;66.92;99748.94;5049929;28;20189;-83
2023/07/13 03:01:25;;;;;;;7.13;4.30;;;;;;;24.39;66.76;99755.16;5048492;28;20449;-85
2023/07/13 03:03:51;;;;;;;8.15;4.95;;;;;;;24.03;68.00;99733.41;5049349;28;20087;-84
2023/07/13 03:06:18;;;;;;;4.32;3.05;;;;;;;24.27;67.70;99770.38;5050069;28;20116;-83
2023/07/13 03:08:44;;;;;;;7.30;4.32;;;;;;;24.08;67.74;99733.09;5049337;28;20029;-84
2023/07/13 03:11:16;;;;;;;4.60;2.63;;;;;;;24.35;67.23;99749.13;5053803;28;20025;-84
2023/07/13 03:13:42;;;;;;;6.82;3.60;;;;;;;24.09;67.10;99714.13;5055860;28;20430;-84
2023/07/13 03:16:10;;;;;;;6.88;4.22;;;;;;;24.34;67.56;99757.31;5055257;28;20029;-84
2023/07/13 03:18:36;;;;;;;4.43;3.15;;;;;;;24.29;67.55;99744.19;5055065;28;20035;-84
2023/07/13 03:21:01;;;;;;;10.60;5.43;;;;;;;24.24;67.54;99738.28;5055633;28;20116;-85
2023/07/13 03:23:27;;;;;;;7.00;3.75;;;;;;;24.23;68.24;99742.78;5055489;28;20123;-85
2023/07/13 03:26:12;;;;;;;8.98;2.47;;;;;;;24.18;68.44;99739.56;5054945;28;20043;-85
2023/07/13 03:28:38;;;;;;;3.90;2.92;;;;;;;24.22;68.92;99741.06;5054368;28;20175;-83
2023/07/13 03:31:07;;;;;;;7.47;3.92;;;;;;;24.08;68.70;99709.72;5056118;28;20473;-82
2023/07/13 03:33:33;;;;;;;7.35;4.53;;;;;;;24.40;68.73;99762.28;5055211;28;20029;-84
2023/07/13 03:35:59;;;;;;;7.28;4.03;;;;;;;24.44;68.51;99737.69;5054030;28;20048;-83
2023/07/13 03:38:26;;;;;;;6.30;3.25;;;;;;;24.39;68.46;99747.94;5055171;28;20187;-84
2023/07/13 03:40:52;;;;;;;6.63;3.05;;;;;;;24.37;68.44;99720.22;5055375;28;20025;-83
2023/07/13 03:43:18;;;;;;;5.80;3.40;;;;;;;24.55;68.57;99760.31;5054738;28;20025;-83
2023/07/13 03:45:43;;;;;;;5.38;3.20;;;;;;;24.50;68.75;99752.56;5054626;28;20127;-84
2023/07/13 03:48:09;;;;;;;5.65;3.72;;;;;;;24.70;68.02;99751.16;5054299;28;20055;-84
2023/07/13 03:50:34;;;;;;;11.68;4.05;;;;;;;24.78;67.89;99754.16;5054889;28;20407;-84
2023/07/13 03:53:00;;;;;;;8.40;4.60;;;;;;;24.68;67.93;99731.50;5055427;28;20479;-83
2023/07/13 03:55:26;;;;;;;7.53;3.97;;;;;;;24.89;67.69;99753.34;5053966;28;20627;-82
2023/07/13 03:57:57;;;;;;;9.45;4.38;;;;;;;24.92;67.35;99739.63;5055587;28;20099;-84
2023/07/13 04:00:23;;;;;;;8.32;4.30;;;;;;;24.83;67.58;99725.00;5055882;28;20037;-84
2023/07/13 04:02:49;;;;;;;9.25;4.63;;;;;;;25.13;67.35;99772.28;5056195;28;20029;-84
2023/07/13 04:05:15;;;;;;;8.55;5.30;;;;;;;25.19;67.49;99771.81;5055744;28;20383;-85
2023/07/13 04:07:40;;;;;;;6.32;4.13;;;;;;;25.20;66.93;99742.97;5055365;28;20096;-84
2023/07/13 04:10:06;;;;;;;5.22;3.13;;;;;;;25.21;67.30;99758.19;5049741;28;20063;-84
2023/07/13 04:12:32;;;;;;;6.60;4.57;;;;;;;25.22;66.86;99756.34;5055014;28;20111;-84
2023/07/13 04:14:57;;;;;;;7.80;4.30;;;;;;;25.40;66.62;99773.91;5054074;28;20078;-85
2023/07/13 04:17:22;;;;;;;6.70;4.22;;;;;;;25.34;66.21;99729.31;5054941;28;20021;-85
2023/07/13 04:19:48;;;;;;;8.35;4.25;;;;;;;25.74;66.09;99763.22;5050453;28;20033;-86
2023/07/13 04:22:14;;;;;;;9.23;4.95;;;;;;;26.02;65.24;99761.09;5042102;28;20112;-83
2023/07/13 04:24:40;;;;;;;11.18;5.70;;;;;;;25.88;64.21;99725.16;5050639;28;20475;-83
2023/07/13 04:27:06;;;;;;;8.18;5.13;;;;;;;25.98;64.04;99759.59;5051921;28;20025;-85
2023/07/13 04:29:32;;;;;;;8.20;4.63;;;;;;;26.00;63.77;99747.69;5066989;28;20420;-85
2023/07/13 04:31:57;;;;;;;8.55;5.05;;;;;;;26.20;63.72;99778.56;5051896;28;20040;-85
2023/07/13 04:34:23;;;;;;;7.07;4.93;;;;;;;25.99;63.55;99727.06;5052961;28;20071;-84
2023/07/13 04:36:49;;;;;;;9.40;4.30;;;;;;;26.19;63.11;99735.44;5052727;28;20037;-83
2023/07/13 04:39:15;;;;;;;12.38;4.80;;;;;;;26.56;62.89;99763.06;5050738;28;20036;-84
2023/07/13 04:41:40;;;;;;;6.40;3.58;;;;;;;26.71;62.04;99785.38;5052673;28;20102;-85
2023/07/13 04:44:06;;;;;;;9.02;5.00;;;;;;;27.02;61.83;99795.50;5044240;28;20029;-86
2023/07/13 04:46:31;;;;;;;6.70;4.38;;;;;;;27.18;60.72;99782.44;5040762;28;20044;-85
2023/07/13 04:48:58;;;;;;;9.18;6.25;;;;;;;27.18;59.41;99754.50;5042323;28;20037;-83
2023/07/13 04:51:24;;;;;;;7.20;4.53;;;;;;;26.89;61.07;99768.59;5042379;28;20025;-85
2023/07/13 04:53:49;;;;;;;8.98;5.75;;;;;;;26.66;60.67;99760.50;5046254;28;20036;-83
2023/07/13 04:56:14;;;;;;;14.40;3.70;;;;;;;26.83;60.66;99778.06;5045786;28;20475;-83
2023/07/13 04:58:40;;;;;;;5.43;3.47;;;;;;;26.95;58.29;99747.28;5047514;28;20025;-83
2023/07/13 05:01:06;;;;;;;9.63;4.68;;;;;;;27.31;58.82;99784.97;5048713;28;20021;-85
2023/07/13 05:03:32;;;;;;;7.75;4.82;;;;;;;27.31;58.59;99772.34;5046961;28;20031;-86
2023/07/13 05:06:06;;;;;;;7.47;3.55;;;;;;;27.71;55.64;99800.59;5041423;28;20079;-84
2023/07/13 05:08:32;;;;;;;6.00;3.90;;;;;;;27.69;55.24;99773.63;5038600;28;20029;-85
2023/07/13 05:11:00;;;;;;;12.68;3.67;;;;;;;27.67;54.46;99750.38;5042814;28;20029;-84
2023/07/13 05:13:25;;;;;;;6.15;3.72;;;;;;;27.69;53.78;99794.47;5045703;28;20049;-82
2023/07/13 05:16:00;;;;;;;5.32;3.88;;;;;;;27.66;55.13;99789.28;5043541;28;20135;-83
2023/07/13 05:18:26;;;;;;;9.95;4.82;;;;;;;27.71;54.72;99737.44;5042963;28;20044;-83
2023/07/13 05:21:00;;;;;;;5.00;3.38;;;;;;;27.73;53.51;99765.25;5043414;28;20033;-86
2023/07/13 05:23:26;;;;;;;3.65;3.00;;;;;;;27.44;53.53;99753.19;5042955;28;20540;-88
2023/07/13 05:25:51;;;;;;;8.90;3.28;;;;;;;28.34;53.45;99791.63;5041528;28;20027;-88
2023/07/13 05:28:16;;;;;;;6.18;3.67;;;;;;;28.16;52.58;99742.56;5038996;28;20039;-87
2023/07/13 05:30:46;;;;;;;6.20;3.63;;;;;;;28.29;52.54;99783.03;5044737;28;20083;-87
2023/07/13 05:33:12;;;;;;;5.68;3.25;;;;;;;28.71;51.99;99780.25;5040724;28;20029;-88
2023/07/13 05:35:37;;;;;;;6.85;3.65;;;;;;;29.02;50.78;99774.75;5039581;28;20562;-88
2023/07/13 05:38:03;;;;;;;12.05;3.92;;;;;;;28.80;51.03;99751.44;5043357;28;20045;-88
2023/07/13 05:40:28;;;;;;;5.88;3.85;;;;;;;29.35;49.11;99772.69;5042893;28;20036;-87
2023/07/13 05:42:53;;;;;;;5.78;3.50;;;;;;;29.27;49.58;99765.22;5042587;28;20029;-88
2023/07/13 05:45:19;;;;;;;3.28;2.55;;;;;;;29.65;48.97;99766.25;5039449;28;20023;-88
2023/07/13 05:47:44;;;;;;;5.75;4.10;;;;;;;30.20;47.62;99802.81;5050025;28;20033;-87
2023/07/13 05:50:10;;;;;;;7.55;3.97;;;;;;;30.21;48.02;99769.19;5041089;28;20067;-88
2023/07/13 05:52:35;;;;;;;4.00;3.15;;;;;;;30.06;48.23;99761.50;5044511;28;20396;-88
2023/07/13 05:55:01;;;;;;;9.52;4.43;;;;;;;30.25;49.37;99789.66;5042981;28;20479;-88
2023/07/13 05:57:26;;;;;;;5.00;3.38;;;;;;;30.70;47.64;99757.09;5041776;28;20032;-88
2023/07/13 05:59:52;;;;;;;5.88;3.55;;;;;;;30.47;46.63;99764.81;5043539;28;20052;-87
2023/07/13 06:02:17;;;;;;;7.32;2.70;;;;;;;30.41;46.45;99794.50;5044204;28;20017;-87
2023/07/13 06:04:42;;;;;;;5.60;3.85;;;;;;;30.55;45.96;99788.53;5042917;28;20025;-87
2023/07/13 06:07:08;;;;;;;10.57;4.53;;;;;;;30.14;48.31;99745.28;5042031;28;20087;-87
2023/07/13 06:09:33;;;;;;;6.90;4.30;;;;;;;30.93;46.92;99780.34;5040746;28;20033;-85
2023/07/13 06:11:59;;;;;;;6.03;3.97;;;;;;;31.24;46.85;99765.38;5050721;28;20375;-86
2023/07/13 06:14:25;;;;;;;6.05;3.88;;;;;;;31.70;45.46;99783.53;5043315;28;20053;-86
2023/07/13 06:16:50;;;;;;;17.02;4.15;;;;;;;31.80;43.72;99780.75;5040106;28;20057;-88
2023/07/13 06:19:16;;;;;;;6.40;3.55;;;;;;;32.09;43.29;99788.63;5043395;28;20035;-88
2023/07/13 06:21:41;;;;;;;17.52;5.93;;;;;;;31.89;44.25;99790.69;5045610;28;20024;-88
2023/07/13 06:24:06;;;;;;;5.60;3.60;;;;;;;31.68;45.08;99791.03;5045530;28;20455;-84
2023/07/13 06:26:32;;;;;;;5.60;2.97;;;;;;;31.51;42.63;99763.63;5043913;28;20037;-86
2023/07/13 06:28:57;;;;;;;9.43;4.95;;;;;;;31.47;43.65;99799.53;5043796;28;20079;-87
2023/07/13 06:31:23;;;;;;;5.13;3.67;;;;;;;31.77;44.85;99752.75;5044370;28;20056;-87
2023/07/13 06:33:48;;;;;;;9.57;4.80;;;;;;;31.94;43.87;99763.78;5043416;28;20025;-89
2023/07/13 06:36:14;;;;;;;7.63;3.47;;;;;;;31.83;42.48;99775.81;5042075;28;20021;-87
2023/07/13 06:38:39;;;;;;;5.93;3.10;;;;;;;32.47;41.07;99770.09;5056686;28;20450;-87
2023/07/13 06:41:07;;;;;;;6.45;3.92;;;;;;;32.91;40.42;99761.78;5039723;28;20045;-83
2023/07/13 06:43:32;;;;;;;12.27;4.78;;;;;;;32.73;40.19;99766.50;5042030;28;20033;-84
2023/07/13 06:45:58;;;;;;;5.10;2.78;;;;;;;32.75;39.09;99775.38;5042250;28;20618;-85
2023/07/13 06:48:24;;;;;;;10.00;4.07;;;;;;;32.69;42.48;99748.72;5039129;28;20036;-85
2023/07/13 06:50:51;;;;;;;9.52;4.28;;;;;;;33.22;41.52;99749.44;5038618;28;20490;-86
2023/07/13 06:53:18;;;;;;;4.88;3.17;;;;;;;33.83;38.56;99722.63;5041622;28;20081;-86
2023/07/13 06:55:44;;;;;;;10.18;3.78;;;;;;;34.02;38.63;99749.63;5038200;28;20033;-85
2023/07/13 06:58:09;;;;;;;5.18;3.47;;;;;;;33.52;40.58;99750.63;5040602;28;20041;-85
2023/07/13 07:00:35;;;;;;;7.70;3.72;;;;;;;34.06;38.32;99745.50;5043785;28;20029;-85
2023/07/13 07:03:00;;;;;;;6.80;3.50;;;;;;;34.19;37.02;99764.13;5040752;28;20059;-86
2023/07/13 07:05:26;;;;;;;8.00;4.50;;;;;;;33.63;36.99;99744.84;5045240;28;20501;-86
2023/07/13 07:07:54;;;;;;;6.60;4.28;;;;;;;34.11;36.37;99723.09;5041627;28;20471;-88
2023/07/13 07:10:19;;;;;;;5.75;3.80;;;;;;;34.93;36.63;99779.50;5044075;28;20059;-87
2023/07/13 07:12:45;;;;;;;8.52;4.10;;;;;;;35.50;35.62;99770.06;5043331;28;20502;-88
2023/07/13 07:15:11;;;;;;;5.25;2.83;;;;;;;34.73;34.31;99760.72;5044357;28;20079;-85
2023/07/13 07:17:37;;;;;;;5.55;3.60;;;;;;;35.29;36.32;99763.34;5041071;28;20052;-85
2023/07/13 07:20:03;;;;;;;13.77;3.95;;;;;;;35.82;35.84;99755.25;5041962;28;20480;-84
2023/07/13 07:22:30;;;;;;;6.63;2.88;;;;;;;35.22;35.44;99745.91;5041916;28;20037;-86
2023/07/13 07:24:56;;;;;;;7.05;3.65;;;;;;;35.64;34.86;99760.19;5041227;28;20031;-85
2023/07/13 07:27:21;;;;;;;6.38;3.75;;;;;;;35.67;33.41;99759.81;5040278;28;20158;-86
2023/07/13 07:29:47;;;;;;;8.00;3.72;;;;;;;35.73;33.45;99748.09;5041125;28;20104;-87
2023/07/13 07:32:12;;;;;;;8.40;4.25;;;;;;;35.23;34.68;99768.69;5041352;28;20421;-85
2023/07/13 07:34:38;;;;;;;7.18;3.72;;;;;;;35.87;34.72;99751.06;5040954;28;20432;-86
2023/07/13 07:37:04;;;;;;;9.63;3.13;;;;;;;36.00;33.11;99713.72;5041302;28;20053;-85
2023/07/13 07:39:29;;;;;;;6.95;3.38;;;;;;;36.40;33.71;99745.59;5044270;28;20544;-86
2023/07/13 07:41:55;;;;;;;7.60;4.35;;;;;;;36.43;33.93;99737.81;5041737;28;20025;-86
2023/07/13 07:44:21;;;;;;;5.85;3.50;;;;;;;36.37;33.12;99722.09;5044211;28;20025;-86
2023/07/13 07:46:46;;;;;;;4.70;2.92;;;;;;;36.83;32.33;99710.88;5049734;28;20047;-86
2023/07/13 07:49:12;;;;;;;6.05;3.63;;;;;;;37.01;31.81;99750.81;5049330;28;20036;-86
2023/07/13 07:51:37;;;;;;;9.85;3.70;;;;;;;36.02;32.40;99744.59;5049550;28;20036;-84
2023/07/13 07:54:04;;;;;;;5.47;2.85;;;;;;;36.59;32.13;99744.97;5049251;28;20029;-86
2023/07/13 07:56:30;;;;;;;6.10;3.88;;;;;;;36.82;32.18;99752.28;5050292;28;20174;-86
2023/07/13 07:58:55;;;;;;;4.30;2.95;;;;;;;36.94;30.93;99745.25;5053143;28;20123;-85
2023/07/13 08:01:21;;;;;;;9.50;3.47;;;;;;;37.15;31.93;99751.81;5053130;28;20028;-85
2023/07/13 08:03:46;;;;;;;6.07;3.60;;;;;;;36.76;31.61;99725.56;5052841;28;20665;-85
2023/07/13 08:06:12;;;;;;;13.10;3.63;;;;;;;37.34;30.06;99731.94;5053562;28;20454;-86
2023/07/13 08:08:37;;;;;;;4.22;3.00;;;;;;;37.80;30.16;99731.53;5053125;28;20427;-85
2023/07/13 08:11:08;;;;;;;8.13;3.55;;;;;;;37.63;31.04;99724.56;5052822;28;20397;-86
2023/07/13 08:13:33;;;;;;;5.18;3.35;;;;;;;37.06;30.82;99720.81;5053274;28;20135;-85
2023/07/13 08:15:59;;;;;;;4.68;3.05;;;;;;;37.49;31.20;99725.50;5052764;28;20533;-86
2023/07/13 08:18:24;;;;;;;4.65;3.30;;;;;;;37.75;29.44;99730.41;5052567;28;20652;-86
2023/07/13 08:20:50;;;;;;;7.70;3.17;;;;;;;37.92;30.30;99709.78;5052706;28;20565;-83
2023/07/13 08:23:16;;;;;;;10.90;3.55;;;;;;;38.35;29.96;99735.53;5052310;28;20056;-83
2023/07/13 08:25:42;;;;;;;6.07;3.75;;;;;;;37.68;30.43;99712.97;5052392;28;20499;-82
2023/07/13 08:28:08;;;;;;;5.07;3.42;;;;;;;37.33;30.93;99713.75;5052483;28;20029;-84
2023/07/13 08:30:33;;;;;;;5.47;4.03;;;;;;;37.55;33.28;99708.22;5052500;28;20024;-83
2023/07/13 08:32:59;;;;;;;6.55;3.20;;;;;;;38.17;30.41;99705.75;5052532;28;20071;-83
2023/07/13 08:35:25;;;;;;;5.80;3.28;;;;;;;38.50;30.94;99716.94;5052251;28;20025;-83
2023/07/13 08:37:51;;;;;;;6.15;3.15;;;;;;;38.39;29.86;99707.38;5052494;28;20112;-85
2023/07/13 08:40:23;;;;;;;8.18;3.58;;;;;;;37.90;29.63;99695.38;5051001;28;20075;-83
2023/07/13 08:42:58;;;;;;;4.60;2.88;;;;;;;37.48;29.98;99704.53;5051895;28;20025;-86
2023/07/13 08:45:26;;;;;;;6.30;3.28;;;;;;;38.37;30.61;99725.97;5051580;28;20036;-82
2023/07/13 08:48:04;;;;;;;4.18;2.65;;;;;;;39.01;29.20;99715.69;5051672;28;20041;-84
2023/07/13 08:50:47;;;;;;;4.93;3.50;;;;;;;38.74;28.78;99701.78;5051305;28;20095;-82
2023/07/13 08:53:15;;;;;;;6.13;3.47;;;;;;;39.19;27.14;99702.16;5051780;28;20021;-83
2023/07/13 08:55:40;;;;;;;5.47;3.25;;;;;;;39.56;28.99;99712.81;5048081;28;20037;-84
2023/07/13 08:58:11;;;;;;;5.97;3.88;;;;;;;39.27;28.01;99686.44;5044164;28;20574;-83
2023/07/13 09:01:03;;;;;;;5.57;3.95;;;;;;;39.09;27.56;99674.13;5042475;28;20396;-82
2023/07/13 09:03:37;;;;;;;7.10;3.13;;;;;;;39.08;27.34;99674.31;5042918;28;20611;-85
2023/07/13 09:06:03;;;;;;;8.68;3.50;;;;;;;39.53;26.23;99671.81;5042817;28;20048;-85
2023/07/13 09:08:47;;;;;;;4.03;2.47;;;;;;;39.77;27.71;99700.72;5043797;28;20056;-83
2023/07/13 09:11:42;;;;;;;5.95;3.30;;;;;;;38.97;28.63;99706.94;5042632;28;20083;-82
2023/07/13 09:14:34;;;;;;;4.70;2.97;;;;;;;39.12;27.51;99692.19;5038515;28;20041;-83
2023/07/13 09:17:05;;;;;;;5.07;2.70;;;;;;;39.68;28.66;99688.19;5038862;28;20036;-82
2023/07/13 09:19:35;;;;;;;3.28;1.90;;;;;;;39.26;27.33;99662.72;5041991;28;20048;-82
2023/07/13 09:22:05;;;;;;;4.78;3.33;;;;;;;39.59;26.27;99687.56;5040638;28;20029;-82
2023/07/13 09:25:02;;;;;;;6.10;3.13;;;;;;;38.99;27.31;99687.44;5045115;28;20462;-82
2023/07/13 09:27:39;;;;;;;4.18;2.92;;;;;;;38.91;27.20;99680.22;5041515;28;20052;-81
2023/07/13 09:30:13;;;;;;;4.72;2.20;;;;;;;39.37;28.12;99675.84;5044164;28;20093;-82
2023/07/13 09:32:43;;;;;;;5.97;3.60;;;;;;;39.33;26.80;99661.66;5043285;28;20033;-83
2023/07/13 09:35:15;;;;;;;3.90;2.58;;;;;;;39.43;27.10;99661.22;5042216;28;20025;-84
2023/07/13 09:37:44;;;;;;;4.53;2.78;;;;;;;39.15;25.49;99653.16;5041324;28;20037;-81
2023/07/13 09:40:37;;;;;;;5.60;3.80;;;;;;;39.02;29.01;99653.94;5043507;28;20025;-81
2023/07/13 09:43:05;;;;;;;7.15;3.05;;;;;;;39.77;27.12;99652.94;5042677;28;20049;-82
2023/07/13 09:45:33;;;;;;;3.92;2.58;;;;;;;40.03;26.50;99649.31;5043019;28;20028;-81
2023/07/13 09:48:05;;;;;;;5.45;3.08;;;;;;;40.36;23.95;99627.06;5044395;28;20032;-82
2023/07/13 09:50:30;;;;;;;6.45;3.42;;;;;;;40.33;23.91;99597.09;5044520;28;20095;-82
2023/07/13 09:52:58;;;;;;;6.15;2.90;;;;;;;40.72;23.86;99630.28;5047486;28;20487;-83
2023/07/13 09:55:28;;;;;;;13.18;3.35;;;;;;;40.77;23.90;99602.84;5045063;28;20110;-83
2023/07/13 09:57:54;;;;;;;4.80;2.83;;;;;;;41.01;22.96;99603.97;5043169;28;20036;-83
2023/07/13 10:00:28;;;;;;;5.50;2.92;;;;;;;41.20;23.20;99602.13;5042913;28;20017;-81
2023/07/13 10:03:03;;;;;;;5.03;2.58;;;;;;;40.46;26.39;99621.13;5043591;28;20104;-82
2023/07/13 10:05:41;;;;;;;3.63;2.17;;;;;;;40.37;21.82;99587.31;5043903;28;20028;-82
2023/07/13 10:08:16;;;;;;;3.90;2.15;;;;;;;40.16;25.14;99604.22;5043600;28;20025;-83
2023/07/13 10:10:42;;;;;;;3.42;1.90;;;;;;;40.09;24.09;99594.03;5041632;28;20036;-82
2023/07/13 10:13:29;;;;;;;2.70;1.90;;;;;;;40.79;23.42;99595.19;5043838;28;20037;-82
2023/07/13 10:15:56;;;;;;;3.08;1.98;;;;;;;40.56;23.25;99591.06;5041306;28;20047;-82
2023/07/13 10:18:24;;;;;;;9.15;3.30;;;;;;;40.35;23.46;99595.00;5038300;28;20053;-81
2023/07/13 10:21:13;;;;;;;6.03;2.67;;;;;;;40.17;23.26;99570.84;5042757;28;20163;-82
2023/07/13 10:23:39;;;;;;;3.95;2.03;;;;;;;40.58;23.13;99569.59;5041060;28;20052;-85
2023/07/13 10:26:11;;;;;;;3.80;2.33;;;;;;;40.80;23.72;99556.25;5036761;28;20021;-82
2023/07/13 10:28:38;;;;;;;3.97;2.65;;;;;;;41.15;22.57;99563.22;5037851;28;20036;-83
2023/07/13 10:31:11;;;;;;;3.08;1.90;;;;;;;41.04;23.53;99566.72;5042363;28;20421;-84
2023/07/13 10:33:36;;;;;;;4.78;2.83;;;;;;;41.46;21.65;99575.28;5041413;28;20040;-83
2023/07/13 10:36:20;;;;;;;2.15;1.75;;;;;;;41.30;22.08;99574.81;5044801;28;20025;-83
2023/07/13 10:38:47;;;;;;;4.20;1.90;;;;;;;41.03;22.78;99574.19;5043416;28;20476;-82
2023/07/13 10:41:19;;;;;;;8.60;2.22;;;;;;;40.81;22.18;99568.16;5042820;28;20024;-82
2023/07/13 10:43:50;;;;;;;2.90;2.10;;;;;;;40.48;21.81;99574.75;5040431;28;20035;-83
2023/07/13 10:46:19;;;;;;;2.53;1.58;;;;;;;40.48;21.87;99562.88;5040684;28;20079;-83
2023/07/13 10:48:49;;;;;;;4.32;2.13;;;;;;;40.98;20.37;99541.69;5036767;28;20039;-84
2023/07/13 10:51:17;;;;;;;4.30;2.22;;;;;;;41.57;21.19;99557.94;5043726;28;20060;-83
2023/07/13 10:53:43;;;;;;;2.53;2.08;;;;;;;41.50;21.44;99548.88;5040148;28;20017;-83
2023/07/13 10:56:29;;;;;;;2.38;1.83;;;;;;;41.03;22.40;99532.72;5041825;28;20032;-82
2023/07/13 10:59:10;;;;;;;3.17;2.30;;;;;;;41.05;21.86;99555.44;5039181;28;20048;-83
2023/07/13 11:01:52;;;;;;;3.88;2.08;;;;;;;41.29;21.15;99537.16;5043301;28;20803;-83
2023/07/13 11:04:20;;;;;;;4.35;2.35;;;;;;;40.73;22.44;99544.38;5040767;28;20029;-82
2023/07/13 11:06:51;;;;;;;4.13;2.17;;;;;;;41.02;23.80;99542.06;5039942;28;20115;-82
2023/07/13 11:09:40;;;;;;;3.83;2.60;;;;;;;41.01;21.73;99523.78;5038569;28;20120;-83
2023/07/13 11:12:17;;;;;;;4.50;2.35;;;;;;;40.85;23.52;99516.03;5043739;28;20465;-82
2023/07/13 11:14:55;;;;;;;4.38;2.60;;;;;;;41.03;21.81;99532.72;5040993;28;20047;-83
2023/07/13 11:17:24;;;;;;;3.97;2.13;;;;;;;41.08;21.18;99513.50;5040111;28;20029;-83
2023/07/13 11:19:53;;;;;;;3.50;1.88;;;;;;;41.13;23.80;99510.06;5042440;28;20029;-83
2023/07/13 11:22:23;;;;;;;4.70;2.88;;;;;;;41.07;22.74;99522.88;5041431;28;20021;-83
2023/07/13 11:24:58;;;;;;;2.72;1.88;;;;;;;41.27;24.41;99510.75;5039746;28;20021;-82
2023/07/13 11:27:46;;;;;;;6.88;3.67;;;;;;;41.33;22.58;99534.78;5042358;28;20219;-83
2023/07/13 11:30:25;;;;;;;2.00;1.48;;;;;;;41.86;20.75;99525.91;5044976;28;20043;-83
2023/07/13 11:33:06;;;;;;;5.60;3.05;;;;;;;41.95;21.16;99520.03;5045133;28;20580;-83
2023/07/13 11:35:35;;;;;;;5.05;2.65;;;;;;;41.56;20.09;99513.91;5044409;28;20116;-84